Time;durP1;ratioP1;P1;durP2;ratioP2;P2;SDS_P1;SDS_P2;PMS_P1;PMS_P2;Temp;Humidity;BMP_temperature;BMP_pressure;BME280_temperature;BME280_humidity;BME280_pressure;Samples;Min_cycle;Max_cycle;Signal;HPM_P1;HPM_P2
2023/04/23 00:00:50;;;;;;;41.25;24.38;;;7.50;99.90;;;;;;5011827;28;20111;-76
2023/04/23 00:03:18;;;;;;;129.60;27.05;;;7.50;99.90;;;;;;5029368;28;20107;-76
2023/04/23 00:05:44;;;;;;;62.58;25.83;;;7.50;99.90;;;;;;5029263;28;20049;-76
2023/04/23 00:08:10;;;;;;;50.70;25.80;;;7.50;99.90;;;;;;5021059;28;20041;-76
2023/04/23 00:10:36;;;;;;;37.95;24.13;;;7.50;99.90;;;;;;5029201;28;20132;-76
2023/04/23 00:13:03;;;;;;;41.17;24.38;;;7.50;99.90;;;;;;5029154;28;20050;-77
2023/04/23 00:15:29;;;;;;;51.80;25.77;;;7.50;99.90;;;;;;5029190;28;20120;-77
2023/04/23 00:17:55;;;;;;;56.15;25.02;;;7.50;99.90;;;;;;5029255;28;20381;-77
2023/04/23 00:20:21;;;;;;;35.90;24.08;;;7.80;99.90;;;;;;5011090;28;20061;-76
2023/04/23 00:22:47;;;;;;;37.10;24.65;;;7.50;99.90;;;;;;5028917;28;20046;-76
2023/04/23 00:25:13;;;;;;;34.50;23.35;;;7.50;99.90;;;;;;5029017;28;20040;-78
2023/04/23 00:27:38;;;;;;;36.35;24.05;;;7.50;99.90;;;;;;5011510;28;20124;-78
2023/04/23 00:30:05;;;;;;;41.67;23.70;;;7.80;99.90;;;;;;5029282;28;20092;-77
2023/04/23 00:32:31;;;;;;;34.60;23.80;;;7.50;99.90;;;;;;5029317;28;20041;-76
2023/04/23 00:34:57;;;;;;;38.33;24.55;;;7.50;99.90;;;;;;5029323;28;20455;-80
2023/04/23 00:37:22;;;;;;;37.47;24.67;;;7.50;99.90;;;;;;5011444;28;20053;-77
2023/04/23 00:39:48;;;;;;;40.13;24.42;;;7.50;99.90;;;;;;5028983;28;20038;-76
2023/04/23 00:42:16;;;;;;;33.35;22.80;;;7.50;99.90;;;;;;5007911;28;20053;-76
2023/04/23 00:44:42;;;;;;;35.08;23.08;;;7.50;99.90;;;;;;5028266;28;20045;-76
2023/04/23 00:47:09;;;;;;;36.70;23.90;;;7.40;99.90;;;;;;5029257;28;20453;-76
2023/04/23 00:49:36;;;;;;;42.13;23.35;;;7.40;99.90;;;;;;5028911;28;20049;-76
2023/04/23 00:52:02;;;;;;;38.42;23.73;;;7.40;99.90;;;;;;5029001;28;20049;-76
2023/04/23 00:54:28;;;;;;;41.47;24.95;;;7.40;99.90;;;;;;5028783;28;20128;-77
2023/04/23 00:56:56;;;;;;;36.60;23.40;;;7.40;99.90;;;;;;5028792;28;20061;-75
2023/04/23 00:59:24;;;;;;;34.28;22.23;;;7.30;99.90;;;;;;5028913;28;20068;-76
2023/04/23 01:01:50;;;;;;;36.92;22.48;;;7.30;99.90;;;;;;5029035;28;20524;-76
2023/04/23 01:04:17;;;;;;;42.28;25.88;;;7.30;99.90;;;;;;5011015;28;20072;-78
2023/04/23 01:06:46;;;;;;;39.42;22.40;;;7.30;99.90;;;;;;5028975;28;20084;-77
2023/04/23 01:09:11;;;;;;;35.28;22.77;;;7.30;99.90;;;;;;5023425;28;20041;-75
2023/04/23 01:11:42;;;;;;;38.25;23.25;;;7.30;99.90;;;;;;5032458;28;20496;-77
2023/04/23 01:14:08;;;;;;;38.15;23.83;;;7.20;99.90;;;;;;5032638;28;20397;-77
2023/04/23 01:16:37;;;;;;;40.15;24.58;;;7.20;99.90;;;;;;5032394;28;20045;-77
2023/04/23 01:19:05;;;;;;;36.53;23.27;;;7.20;99.90;;;;;;5032442;28;20400;-77
2023/04/23 01:21:32;;;;;;;43.85;24.98;;;7.30;99.90;;;;;;5032175;28;20064;-75
2023/04/23 01:23:58;;;;;;;39.72;23.67;;;7.20;99.90;;;;;;5014138;28;20053;-77
2023/04/23 01:26:24;;;;;;;42.38;24.55;;;7.10;99.90;;;;;;5031884;28;20041;-77
2023/04/23 01:28:51;;;;;;;48.38;27.67;;;7.20;99.90;;;;;;5014336;28;20049;-76
2023/04/23 01:31:17;;;;;;;44.35;25.85;;;7.10;99.90;;;;;;5031964;28;20053;-77
2023/04/23 01:33:44;;;;;;;47.03;26.55;;;7.20;99.90;;;;;;5031836;28;20044;-77
2023/04/23 01:36:10;;;;;;;45.58;26.08;;;7.20;99.90;;;;;;5031950;28;20037;-77
2023/04/23 01:38:37;;;;;;;52.40;29.00;;;7.40;99.90;;;;;;5031972;28;20053;-80
2023/04/23 01:41:03;;;;;;;48.97;28.60;;;7.10;99.90;;;;;;5013904;28;20111;-77
2023/04/23 01:43:30;;;;;;;49.65;29.05;;;7.10;99.90;;;;;;5031687;28;20045;-76
2023/04/23 01:45:58;;;;;;;52.80;29.83;;;7.10;99.90;;;;;;5032394;28;20037;-76
2023/04/23 01:48:24;;;;;;;55.05;30.38;;;7.10;99.90;;;;;;5014010;28;20415;-75
2023/04/23 01:50:51;;;;;;;54.58;31.40;;;7.10;99.90;;;;;;5031719;28;20145;-75
2023/04/23 01:53:17;;;;;;;59.17;32.53;;;7.10;99.90;;;;;;5031703;28;20050;-76
2023/04/23 01:55:46;;;;;;;69.03;35.35;;;7.10;99.90;;;;;;5031113;28;20029;-76
2023/04/23 01:58:12;;;;;;;63.05;34.75;;;7.10;99.90;;;;;;5031179;28;20049;-75
2023/04/23 02:00:37;;;;;;;62.88;35.92;;;7.10;99.90;;;;;;5030799;28;20096;-76
2023/04/23 02:03:03;;;;;;;75.95;36.80;;;7.10;99.90;;;;;;5031225;28;20463;-75
2023/04/23 02:05:29;;;;;;;70.75;37.20;;;7.10;99.90;;;;;;5031549;28;20040;-77
2023/04/23 02:07:55;;;;;;;73.72;38.13;;;7.10;99.90;;;;;;5031448;28;20108;-75
2023/04/23 02:10:21;;;;;;;70.25;37.60;;;7.10;99.90;;;;;;5031057;28;20057;-76
2023/04/23 02:12:47;;;;;;;72.60;38.70;;;7.10;99.90;;;;;;5031056;28;20053;-75
2023/04/23 02:15:14;;;;;;;70.93;37.75;;;7.10;99.90;;;;;;5030306;28;20052;-75
2023/04/23 02:17:40;;;;;;;67.30;37.08;;;7.00;99.90;;;;;;5012765;28;20052;-76
2023/04/23 02:20:08;;;;;;;67.95;36.90;;;7.30;99.90;;;;;;5030731;28;20049;-75
2023/04/23 02:22:36;;;;;;;67.07;37.42;;;7.00;99.90;;;;;;5030403;28;20049;-76
2023/04/23 02:25:02;;;;;;;63.30;36.17;;;7.10;99.90;;;;;;5030894;28;20476;-76
2023/04/23 02:27:28;;;;;;;62.63;35.30;;;7.00;99.90;;;;;;5022506;28;20087;-77
2023/04/23 02:29:53;;;;;;;63.75;35.13;;;6.90;99.90;;;;;;5012627;28;20381;-75
2023/04/23 02:32:19;;;;;;;59.15;34.58;;;7.00;99.90;;;;;;5030700;28;20377;-75
2023/04/23 02:34:45;;;;;;;60.83;33.72;;;7.40;99.90;;;;;;5031016;28;20168;-76
2023/04/23 02:37:10;;;;;;;64.18;35.88;;;7.00;99.90;;;;;;5009735;28;20054;-75
2023/04/23 02:39:37;;;;;;;64.75;36.00;;;7.00;99.90;;;;;;5030841;28;20365;-75
2023/04/23 02:42:03;;;;;;;72.78;40.33;;;7.00;99.90;;;;;;5030539;28;20052;-75
2023/04/23 02:44:29;;;;;;;75.00;40.83;;;7.00;99.90;;;;;;5029986;28;20500;-77
2023/04/23 02:46:55;;;;;;;75.85;41.05;;;7.00;99.90;;;;;;5030285;28;20033;-75
2023/04/23 02:49:20;;;;;;;78.03;40.45;;;7.00;99.90;;;;;;5030769;28;20049;-75
2023/04/23 02:51:46;;;;;;;94.57;44.13;;;7.00;99.90;;;;;;5030252;28;20048;-75
2023/04/23 02:54:12;;;;;;;132.00;47.35;;;7.00;99.90;;;;;;5030261;28;20120;-75
2023/04/23 02:56:38;;;;;;;104.88;46.63;;;7.00;99.90;;;;;;5029714;28;20041;-75
2023/04/23 02:59:05;;;;;;;165.43;49.50;;;7.10;99.90;;;;;;5029916;28;20048;-75
2023/04/23 03:01:31;;;;;;;103.28;48.83;;;7.10;99.90;;;;;;5029908;28;20069;-75
2023/04/23 03:03:58;;;;;;;97.65;46.83;;;7.10;99.90;;;;;;5030278;28;20045;-75
2023/04/23 03:06:23;;;;;;;115.20;49.63;;;7.10;99.90;;;;;;5030232;28;20536;-76
2023/04/23 03:08:49;;;;;;;104.10;47.47;;;7.10;99.90;;;;;;4995965;28;20132;-76
2023/04/23 03:11:15;;;;;;;126.57;48.65;;;7.10;99.90;;;;;;5029859;28;20049;-76
2023/04/23 03:13:40;;;;;;;114.18;48.88;;;7.50;99.90;;;;;;5011883;28;20115;-76
2023/04/23 03:16:06;;;;;;;200.38;49.15;;;7.10;99.90;;;;;;5029473;28;20132;-76
2023/04/23 03:18:32;;;;;;;113.55;48.85;;;7.10;99.90;;;;;;5012048;28;20045;-76
2023/04/23 03:20:58;;;;;;;120.40;49.35;;;7.10;99.90;;;;;;5030072;28;20382;-75
2023/04/23 03:23:23;;;;;;;167.70;50.58;;;7.10;99.90;;;;;;5029489;28;20052;-75
2023/04/23 03:25:49;;;;;;;118.22;50.80;;;7.10;99.90;;;;;;5027734;28;20090;-75
2023/04/23 03:28:15;;;;;;;127.95;51.08;;;7.20;99.90;;;;;;5029536;28;20037;-76
2023/04/23 03:30:41;;;;;;;142.48;51.78;;;7.20;99.90;;;;;;5011739;28;20064;-75
2023/04/23 03:33:06;;;;;;;103.85;50.05;;;7.10;99.90;;;;;;5029946;28;20119;-75
2023/04/23 03:35:32;;;;;;;117.45;50.38;;;7.20;99.90;;;;;;5029859;28;20129;-75
2023/04/23 03:37:58;;;;;;;137.60;54.60;;;7.20;99.90;;;;;;5030015;28;20057;-78
2023/04/23 03:40:23;;;;;;;107.18;51.88;;;7.20;99.90;;;;;;5029089;28;20384;-76
2023/04/23 03:42:49;;;;;;;104.72;51.03;;;7.20;99.90;;;;;;5011559;28;20057;-75
2023/04/23 03:45:18;;;;;;;143.60;54.33;;;7.20;99.90;;;;;;5008289;28;20081;-75
2023/04/23 03:47:43;;;;;;;116.45;52.25;;;7.20;99.90;;;;;;5011982;28;20049;-75
2023/04/23 03:50:09;;;;;;;117.32;52.75;;;7.20;99.90;;;;;;5012009;28;20052;-75
2023/04/23 03:52:35;;;;;;;116.60;54.15;;;7.20;99.90;;;;;;5009195;28;20046;-76
2023/04/23 03:55:01;;;;;;;113.00;51.72;;;7.30;99.90;;;;;;5012055;28;20053;-76
2023/04/23 03:57:27;;;;;;;115.38;51.88;;;7.30;99.90;;;;;;5029264;28;20060;-76
2023/04/23 03:59:53;;;;;;;123.35;56.58;;;7.30;99.90;;;;;;5029474;28;20395;-76
2023/04/23 04:02:19;;;;;;;120.60;53.47;;;7.30;99.90;;;;;;5029142;28;20551;-74
2023/04/23 04:04:45;;;;;;;122.82;54.40;;;7.30;99.90;;;;;;5029387;28;20133;-77
2023/04/23 04:07:11;;;;;;;124.93;56.72;;;7.40;99.90;;;;;;5011491;28;20045;-75
2023/04/23 04:09:38;;;;;;;115.38;55.17;;;7.40;99.90;;;;;;5029582;28;20075;-74
2023/04/23 04:12:04;;;;;;;130.32;57.28;;;7.40;99.90;;;;;;5029320;28;20053;-77
2023/04/23 04:14:31;;;;;;;125.80;55.05;;;7.40;99.90;;;;;;5028830;28;20049;-82
2023/04/23 04:16:59;;;;;;;119.93;54.05;;;7.40;99.90;;;;;;5029021;28;20065;-78
2023/04/23 04:19:25;;;;;;;121.40;55.92;;;7.40;99.90;;;;;;5029313;28;20499;-75
2023/04/23 04:21:50;;;;;;;134.85;57.22;;;7.50;99.90;;;;;;5029146;28;20068;-76
2023/04/23 04:24:17;;;;;;;129.93;58.38;;;7.50;99.90;;;;;;5029472;28;20041;-75
2023/04/23 04:26:44;;;;;;;141.73;59.15;;;7.50;99.90;;;;;;5029331;28;20125;-76
2023/04/23 04:29:10;;;;;;;137.00;58.70;;;7.50;99.90;;;;;;5010960;28;20041;-76
2023/04/23 04:31:36;;;;;;;125.75;58.85;;;8.00;99.90;;;;;;5028757;28;20037;-76
2023/04/23 04:34:02;;;;;;;129.15;57.70;;;7.80;99.90;;;;;;5029452;28;20037;-76
2023/04/23 04:36:28;;;;;;;115.75;56.25;;;7.50;99.90;;;;;;5029098;28;20041;-75
2023/04/23 04:38:57;;;;;;;123.65;56.92;;;7.70;99.90;;;;;;5029257;28;20044;-75
2023/04/23 04:41:24;;;;;;;114.53;55.05;;;7.60;99.90;;;;;;5029957;28;20437;-76
2023/04/23 04:43:50;;;;;;;118.57;54.97;;;7.80;99.90;;;;;;5032455;28;20084;-76
2023/04/23 04:46:19;;;;;;;110.45;55.60;;;7.60;99.90;;;;;;5032779;28;20411;-75
2023/04/23 04:48:45;;;;;;;123.75;56.17;;;7.60;99.90;;;;;;5033021;28;20057;-76
2023/04/23 04:51:11;;;;;;;112.47;54.00;;;7.60;99.90;;;;;;5032827;28;20120;-75
2023/04/23 04:53:37;;;;;;;112.22;54.78;;;7.60;99.90;;;;;;5032980;28;20042;-77
2023/04/23 04:56:02;;;;;;;104.93;51.67;;;7.60;99.90;;;;;;5015229;28;20053;-75
2023/04/23 04:58:28;;;;;;;106.85;51.88;;;7.60;99.90;;;;;;5032912;28;20076;-76
2023/04/23 05:00:54;;;;;;;99.68;51.42;;;7.60;99.90;;;;;;5032183;28;20656;-77
2023/04/23 05:03:20;;;;;;;100.90;50.90;;;7.60;99.90;;;;;;5032092;28;20081;-76
2023/04/23 05:05:47;;;;;;;98.13;49.38;;;7.60;99.90;;;;;;5014289;28;20083;-75
2023/04/23 05:08:15;;;;;;;96.10;50.35;;;7.70;99.90;;;;;;5032679;28;20121;-75
2023/04/23 05:10:41;;;;;;;97.53;48.67;;;7.70;99.90;;;;;;5032422;28;20473;-78
2023/04/23 05:13:07;;;;;;;96.13;49.15;;;7.70;99.90;;;;;;5032234;28;20497;-75
2023/04/23 05:15:32;;;;;;;97.13;49.03;;;7.70;99.90;;;;;;5030914;28;20072;-75
2023/04/23 05:17:58;;;;;;;85.32;46.80;;;7.70;99.90;;;;;;5031890;28;20073;-76
2023/04/23 05:20:24;;;;;;;89.15;47.42;;;7.70;99.90;;;;;;5013822;28;20045;-75
2023/04/23 05:22:49;;;;;;;80.68;45.28;;;7.70;99.90;;;;;;5031837;28;20049;-77
2023/04/23 05:25:15;;;;;;;87.57;46.10;;;7.70;99.90;;;;;;5032107;28;20059;-75
2023/04/23 05:27:41;;;;;;;84.18;45.30;;;7.70;99.90;;;;;;5032277;28;20041;-75
2023/04/23 05:30:08;;;;;;;82.57;44.85;;;7.70;99.90;;;;;;5031863;28;20124;-76
2023/04/23 05:32:35;;;;;;;81.22;45.67;;;7.80;99.90;;;;;;5023689;28;20041;-76
2023/04/23 05:35:04;;;;;;;79.32;44.58;;;7.80;99.90;;;;;;5031752;28;20054;-75
2023/04/23 05:37:30;;;;;;;80.20;45.78;;;7.80;99.90;;;;;;5032007;28;20088;-76
2023/04/23 05:39:57;;;;;;;88.20;46.85;;;7.80;99.90;;;;;;5011042;28;20073;-77
2023/04/23 05:42:23;;;;;;;77.65;44.35;;;8.00;99.90;;;;;;5028940;28;20099;-76
2023/04/23 05:44:48;;;;;;;86.20;46.80;;;7.80;99.90;;;;;;5031410;28;20038;-76
2023/04/23 05:47:14;;;;;;;86.10;47.55;;;7.90;99.90;;;;;;5010471;28;20473;-76
2023/04/23 05:49:39;;;;;;;78.70;44.75;;;7.90;99.90;;;;;;5031911;28;20555;-75
2023/04/23 05:52:05;;;;;;;86.22;46.00;;;7.90;99.90;;;;;;5031720;28;20488;-76
2023/04/23 05:54:31;;;;;;;82.20;45.78;;;7.90;99.90;;;;;;5013501;28;20603;-75
2023/04/23 05:56:57;;;;;;;83.68;44.38;;;8.00;99.90;;;;;;5031445;28;20124;-76
2023/04/23 05:59:23;;;;;;;92.10;48.00;;;8.00;99.90;;;;;;5031349;28;20077;-75
2023/04/23 06:01:49;;;;;;;85.75;45.47;;;8.10;99.90;;;;;;5013511;28;20073;-74
2023/04/23 06:04:15;;;;;;;84.38;46.10;;;8.10;99.90;;;;;;5031682;28;20045;-77
2023/04/23 06:06:44;;;;;;;86.75;44.42;;;8.60;99.90;;;;;;5031659;28;20064;-75
2023/04/23 06:09:11;;;;;;;88.65;46.10;;;8.30;99.90;;;;;;5021845;28;20108;-76
2023/04/23 06:11:37;;;;;;;83.97;45.88;;;8.30;99.90;;;;;;5031193;28;20045;-75
2023/04/23 06:14:03;;;;;;;96.18;48.17;;;8.40;99.90;;;;;;5030777;28;20124;-78
2023/04/23 06:16:29;;;;;;;99.30;51.03;;;8.50;99.90;;;;;;5030492;28;20033;-75
2023/04/23 06:18:55;;;;;;;87.95;48.15;;;8.60;99.90;;;;;;5031374;28;20053;-75
2023/04/23 06:21:24;;;;;;;89.25;48.88;;;8.60;99.90;;;;;;5030617;28;20420;-77
2023/04/23 06:23:50;;;;;;;93.55;48.50;;;8.70;99.90;;;;;;5030735;28;20045;-73
2023/04/23 06:26:16;;;;;;;96.20;50.42;;;8.70;99.90;;;;;;5030555;28;20547;-80
2023/04/23 06:28:43;;;;;;;93.18;48.80;;;8.80;99.90;;;;;;5012477;28;20049;-76
2023/04/23 06:31:09;;;;;;;98.28;48.67;;;8.90;99.90;;;;;;5029701;28;20041;-75
2023/04/23 06:33:38;;;;;;;91.80;48.35;;;9.10;99.90;;;;;;5030548;28;20037;-77
2023/04/23 06:36:04;;;;;;;94.60;48.80;;;9.20;99.90;;;;;;5012704;28;20124;-76
2023/04/23 06:38:30;;;;;;;89.00;48.88;;;9.10;99.90;;;;;;5030214;28;20535;-76
2023/04/23 06:40:56;;;;;;;90.55;47.88;;;9.50;99.90;;;;;;5030357;28;20033;-74
2023/04/23 06:43:22;;;;;;;88.13;48.72;;;9.10;99.90;;;;;;5029934;28;20095;-77
2023/04/23 06:45:48;;;;;;;83.78;45.95;;;9.20;99.90;;;;;;5029906;28;20033;-74
2023/04/23 06:48:13;;;;;;;86.00;47.67;;;9.20;99.90;;;;;;5012196;28;20076;-75
2023/04/23 06:50:39;;;;;;;87.13;46.70;;;9.30;99.90;;;;;;5030395;28;20041;-75
2023/04/23 06:53:05;;;;;;;86.50;46.70;;;9.40;99.90;;;;;;5030446;28;20049;-75
2023/04/23 06:55:31;;;;;;;79.28;46.72;;;9.50;99.90;;;;;;5030349;28;20038;-74
2023/04/23 06:57:57;;;;;;;83.63;45.90;;;9.50;99.90;;;;;;5030060;28;20045;-78
2023/04/23 07:00:23;;;;;;;77.38;45.00;;;9.60;99.90;;;;;;5029804;28;20049;-75
2023/04/23 07:02:49;;;;;;;83.97;45.40;;;9.70;99.90;;;;;;5029064;28;20512;-75
2023/04/23 07:05:16;;;;;;;87.32;46.85;;;10.00;99.90;;;;;;5029064;28;20080;-74
2023/04/23 07:07:42;;;;;;;74.30;43.50;;;9.90;99.90;;;;;;5029392;28;20400;-77
2023/04/23 07:10:09;;;;;;;79.80;45.92;;;10.50;99.90;;;;;;5030677;28;20037;-75
2023/04/23 07:12:35;;;;;;;79.50;45.17;;;10.20;99.90;;;;;;5030368;28;20045;-74
2023/04/23 07:15:01;;;;;;;73.50;44.17;;;10.30;99.90;;;;;;5030127;28;20049;-75
2023/04/23 07:17:27;;;;;;;76.38;42.95;;;10.40;99.90;;;;;;5012043;28;20666;-75
2023/04/23 07:19:52;;;;;;;71.22;41.65;;;10.60;99.90;;;;;;5030311;28;20132;-75
2023/04/23 07:22:18;;;;;;;70.63;44.58;;;10.70;99.90;;;;;;5012320;28;20064;-76
2023/04/23 07:24:44;;;;;;;67.60;40.83;;;11.10;99.90;;;;;;5030436;28;20550;-76
2023/04/23 07:27:09;;;;;;;65.47;41.28;;;10.90;99.90;;;;;;5030121;28;20128;-75
2023/04/23 07:29:35;;;;;;;65.40;40.67;;;11.10;99.90;;;;;;5030039;28;20052;-76
2023/04/23 07:32:01;;;;;;;65.30;40.67;;;10.90;99.90;;;;;;5029733;28;20045;-75
2023/04/23 07:34:26;;;;;;;64.20;40.13;;;11.30;99.90;;;;;;5012131;28;20134;-75
2023/04/23 07:36:52;;;;;;;67.80;41.28;;;11.00;99.90;;;;;;5029855;28;20396;-79
2023/04/23 07:39:17;;;;;;;62.65;39.08;;;11.10;99.90;;;;;;5010391;28;20045;-75
2023/04/23 07:41:43;;;;;;;60.63;37.22;;;11.20;99.90;;;;;;5029727;28;20395;-77
2023/04/23 07:44:09;;;;;;;63.38;39.10;;;11.20;99.90;;;;;;5011705;28;20057;-76
2023/04/23 07:46:34;;;;;;;55.58;37.10;;;11.20;99.90;;;;;;5029805;28;20049;-74
2023/04/23 07:49:00;;;;;;;54.78;36.28;;;11.20;99.90;;;;;;5029792;28;20668;-75
2023/04/23 07:51:26;;;;;;;56.13;36.03;;;11.30;99.90;;;;;;5011830;28;20164;-76
2023/04/23 07:53:53;;;;;;;56.10;36.80;;;11.50;99.90;;;;;;5029635;28;20052;-75
2023/04/23 07:56:21;;;;;;;56.10;35.90;;;11.70;99.90;;;;;;5012049;28;20053;-76
2023/04/23 07:58:46;;;;;;;52.55;34.72;;;11.70;99.90;;;;;;5029709;28;20128;-75
2023/04/23 08:01:12;;;;;;;53.50;33.75;;;11.80;99.90;;;;;;5029749;28;20121;-77
2023/04/23 08:03:38;;;;;;;52.58;33.45;;;11.90;99.90;;;;;;5029496;28;20045;-77
2023/04/23 08:06:04;;;;;;;50.92;34.15;;;12.20;99.90;;;;;;5004552;28;20057;-75
2023/04/23 08:08:30;;;;;;;49.65;33.83;;;12.30;99.90;;;;;;5029339;28;20045;-75
2023/04/23 08:10:55;;;;;;;47.17;32.05;;;12.40;99.90;;;;;;5030338;28;20041;-74
2023/04/23 08:13:21;;;;;;;49.20;31.67;;;12.70;99.90;;;;;;5008657;28;20097;-74
2023/04/23 08:15:47;;;;;;;46.28;31.92;;;12.80;99.90;;;;;;5029910;28;20144;-79
2023/04/23 08:18:14;;;;;;;43.80;31.60;;;12.90;99.90;;;;;;5015136;28;20069;-75
2023/04/23 08:20:39;;;;;;;39.42;27.83;;;13.00;99.90;;;;;;5033677;28;20061;-75
2023/04/23 08:23:05;;;;;;;43.40;31.63;;;13.10;99.90;;;;;;5033254;28;20493;-74
2023/04/23 08:25:31;;;;;;;43.78;30.08;;;13.30;99.90;;;;;;5033492;28;20046;-74
2023/04/23 08:27:57;;;;;;;42.63;29.55;;;13.50;99.90;;;;;;5033989;28;20047;-76
2023/04/23 08:30:23;;;;;;;38.22;27.20;;;13.60;99.90;;;;;;5015784;28;20047;-75
2023/04/23 08:32:52;;;;;;;38.65;27.50;;;13.70;99.90;;;;;;5033566;28;20041;-75
2023/04/23 08:35:18;;;;;;;42.63;28.92;;;13.80;99.90;;;;;;5031369;28;20041;-74
2023/04/23 08:37:45;;;;;;;40.50;29.10;;;14.00;99.90;;;;;;5028111;28;20045;-75
2023/04/23 08:40:12;;;;;;;35.28;26.35;;;14.30;99.90;;;;;;5031190;28;20514;-74
2023/04/23 08:42:44;;;;;;;36.22;25.50;;;14.20;99.90;;;;;;5011310;28;20056;-77
2023/04/23 08:45:11;;;;;;;36.83;25.20;;;14.30;99.90;;;;;;5013131;28;20045;-78
2023/04/23 08:47:41;;;;;;;35.38;25.50;;;14.40;99.90;;;;;;5031898;28;20050;-76
2023/04/23 08:50:22;;;;;;;35.13;25.45;;;14.60;99.90;;;;;;5030930;28;20042;-74
2023/04/23 08:52:55;;;;;;;34.25;23.88;;;14.80;99.90;;;;;;5013198;28;20385;-75
2023/04/23 08:55:22;;;;;;;36.13;24.13;;;14.90;99.90;;;;;;5036239;28;20049;-78
2023/04/23 08:57:48;;;;;;;32.55;24.13;;;15.00;99.90;;;;;;5032798;28;20113;-78
2023/04/23 09:00:16;;;;;;;31.90;22.10;;;15.10;99.90;;;;;;5015008;28;20045;-75
2023/04/23 09:02:44;;;;;;;32.75;21.52;;;15.30;99.90;;;;;;5028790;28;20171;-75
2023/04/23 09:05:10;;;;;;;33.50;23.92;;;15.40;99.90;;;;;;5028692;28;20038;-77
2023/04/23 09:07:36;;;;;;;30.23;23.08;;;15.60;99.90;;;;;;5030169;28;20108;-77
2023/04/23 09:10:03;;;;;;;32.92;22.20;;;15.60;99.90;;;;;;5030584;28;20056;-77
2023/04/23 09:12:35;;;;;;;28.92;20.23;;;15.80;99.90;;;;;;5027943;28;20141;-74
2023/04/23 09:15:09;;;;;;;27.70;19.40;;;15.90;99.90;;;;;;4999935;28;20155;-77
2023/04/23 09:17:36;;;;;;;25.05;18.60;;;16.10;99.90;;;;;;5034125;28;20107;-76
2023/04/23 09:20:02;;;;;;;30.67;20.58;;;16.20;99.90;;;;;;5016072;28;20408;-76
2023/04/23 09:22:44;;;;;;;30.33;19.08;;;16.40;99.90;;;;;;5026709;28;20708;-76
2023/04/23 09:25:11;;;;;;;25.25;18.25;;;16.50;99.90;;;;;;5034649;28;20499;-77
2023/04/23 09:27:38;;;;;;;22.27;15.48;;;16.60;99.90;;;;;;5030352;28;20048;-75
2023/04/23 09:30:14;;;;;;;23.35;15.30;;;16.70;99.90;;;;;;5026243;28;20046;-78
2023/04/23 09:32:41;;;;;;;19.08;13.15;;;16.50;99.90;;;;;;5026640;28;20041;-79
2023/04/23 09:35:09;;;;;;;21.00;13.98;;;16.70;99.90;;;;;;5005545;28;20055;-76
2023/04/23 09:37:36;;;;;;;21.98;14.52;;;16.80;99.90;;;;;;5026843;28;20045;-76
2023/04/23 09:40:07;;;;;;;22.17;13.43;;;16.80;99.90;;;;;;5027422;28;20053;-77
2023/04/23 09:42:33;;;;;;;19.85;12.05;;;16.70;99.90;;;;;;5027204;28;20125;-76
2023/04/23 09:45:08;;;;;;;18.05;10.65;;;16.60;99.90;;;;;;5012694;28;20480;-75
2023/04/23 09:47:37;;;;;;;17.42;11.35;;;16.60;99.90;;;;;;5035147;28;20667;-76
2023/04/23 09:50:04;;;;;;;16.38;11.73;;;16.60;99.90;;;;;;5028896;28;20088;-75
2023/04/23 09:52:37;;;;;;;18.88;11.27;;;16.60;99.90;;;;;;5031608;28;20129;-73
2023/04/23 09:55:04;;;;;;;19.48;11.13;;;16.40;99.90;;;;;;5028420;28;20048;-73
2023/04/23 09:57:36;;;;;;;19.13;11.07;;;16.40;99.90;;;;;;5029320;28;20427;-74
2023/04/23 10:00:17;;;;;;;20.25;10.35;;;16.20;99.90;;;;;;5038055;28;20037;-75
2023/04/23 10:02:48;;;;;;;16.58;10.70;;;16.10;99.90;;;;;;5030913;28;20108;-74
2023/04/23 10:05:21;;;;;;;20.30;10.60;;;16.40;99.90;;;;;;5029226;28;20041;-76
2023/04/23 10:07:47;;;;;;;23.27;10.52;;;16.80;99.90;;;;;;5026859;28;20037;-74
2023/04/23 10:10:18;;;;;;;14.52;7.22;;;16.90;99.90;;;;;;5031041;28;20042;-76
2023/04/23 10:12:44;;;;;;;14.38;6.63;;;16.90;99.90;;;;;;5033622;28;20040;-76
2023/04/23 10:15:11;;;;;;;17.15;6.95;;;16.80;99.90;;;;;;5027188;28;20052;-74
2023/04/23 10:17:38;;;;;;;11.70;6.88;;;17.00;99.90;;;;;;5028197;28;20483;-77
2023/04/23 10:20:06;;;;;;;15.77;7.25;;;17.30;99.90;;;;;;5022795;28;20037;-75
2023/04/23 10:22:33;;;;;;;13.10;6.45;;;17.30;99.90;;;;;;5038429;28;20058;-75
2023/04/23 10:25:03;;;;;;;15.93;6.53;;;17.50;99.90;;;;;;5014285;28;20064;-75
2023/04/23 10:27:30;;;;;;;12.02;6.43;;;17.70;99.90;;;;;;5029678;28;20036;-73
2023/04/23 10:29:59;;;;;;;18.73;6.50;;;17.80;99.90;;;;;;5033481;28;20069;-73
2023/04/23 10:32:26;;;;;;;11.15;5.40;;;17.80;99.90;;;;;;5035657;28;20048;-73
2023/04/23 10:34:52;;;;;;;15.95;6.90;;;17.80;99.90;;;;;;5040004;28;20488;-74
2023/04/23 10:37:19;;;;;;;13.60;5.38;;;18.00;99.90;;;;;;5030523;28;20049;-75
2023/04/23 10:39:54;;;;;;;11.27;5.72;;;18.20;99.90;;;;;;5029824;28;20026;-74
2023/04/23 10:42:22;;;;;;;15.07;4.65;;;18.40;99.90;;;;;;5036781;28;20052;-76
2023/04/23 10:44:48;;;;;;;10.60;5.05;;;18.10;99.90;;;;;;5029696;28;20037;-72
2023/04/23 10:47:15;;;;;;;11.77;4.10;;;18.10;99.90;;;;;;5027130;28;20084;-72
2023/04/23 10:49:43;;;;;;;13.90;4.72;;;18.10;99.90;;;;;;5021971;28;20041;-78
2023/04/23 10:52:09;;;;;;;13.85;4.07;;;18.30;99.90;;;;;;5028721;28;20049;-77
2023/04/23 10:54:35;;;;;;;13.52;3.67;;;18.50;99.90;;;;;;5030637;28;20071;-77
2023/04/23 10:57:05;;;;;;;11.70;3.95;;;18.40;99.90;;;;;;5015228;28;20160;-75
2023/04/23 10:59:38;;;;;;;8.85;3.08;;;18.50;99.90;;;;;;5026117;28;20125;-77
2023/04/23 11:02:09;;;;;;;11.40;3.47;;;18.80;99.90;;;;;;5028317;28;20403;-75
2023/04/23 11:04:36;;;;;;;11.90;4.03;;;18.90;99.90;;;;;;5009094;28;20431;-76
2023/04/23 11:07:09;;;;;;;11.95;3.03;;;18.70;99.90;;;;;;5028884;28;20060;-75
2023/04/23 11:09:41;;;;;;;12.43;2.90;;;18.60;99.90;;;;;;5009572;28;20088;-80
2023/04/23 11:12:11;;;;;;;8.02;2.70;;;18.30;99.90;;;;;;5029654;28;20049;-76
2023/04/23 11:14:47;;;;;;;10.98;3.10;;;18.10;99.90;;;;;;5026129;28;20095;-76
2023/04/23 11:17:14;;;;;;;8.32;2.78;;;17.90;99.90;;;;;;5027943;28;20053;-76
2023/04/23 11:20:01;;;;;;;9.98;2.60;;;17.80;99.90;;;;;;5025004;28;20518;-77
2023/04/23 11:22:35;;;;;;;10.18;2.55;;;17.90;99.90;;;;;;5018167;28;20057;-77
2023/04/23 11:25:01;;;;;;;7.27;1.60;;;17.90;99.90;;;;;;5002731;28;20081;-74
2023/04/23 11:27:29;;;;;;;9.13;1.60;;;17.70;99.90;;;;;;5011865;28;20041;-75
2023/04/23 11:29:55;;;;;;;5.70;1.70;;;17.70;99.90;;;;;;5011209;28;20077;-74
2023/04/23 11:32:21;;;;;;;9.52;2.42;;;17.90;99.90;;;;;;5014814;28;20137;-75
2023/04/23 11:34:49;;;;;;;6.55;2.10;;;17.80;99.90;;;;;;5001436;28;20145;-75
2023/04/23 11:37:16;;;;;;;11.45;2.47;;;17.90;99.90;;;;;;5008354;28;20332;-76
2023/04/23 11:39:43;;;;;;;10.65;2.30;;;18.00;99.90;;;;;;5010033;28;20088;-76
2023/04/23 11:42:20;;;;;;;9.93;1.98;;;18.00;99.90;;;;;;5009615;28;20041;-75
2023/04/23 11:44:46;;;;;;;7.10;1.70;;;17.90;99.90;;;;;;5007602;28;20049;-77
2023/04/23 11:47:15;;;;;;;5.93;1.88;;;18.00;99.90;;;;;;5010288;28;20413;-75
2023/04/23 11:49:42;;;;;;;6.47;1.67;;;18.20;99.90;;;;;;5010404;28;20504;-74
2023/04/23 11:52:09;;;;;;;5.57;1.63;;;18.20;99.90;;;;;;5009676;28;20034;-74
2023/04/23 11:54:35;;;;;;;3.63;1.92;;;18.00;99.90;;;;;;5010234;28;20046;-75
2023/04/23 11:57:05;;;;;;;8.38;2.35;;;18.00;99.90;;;;;;5009524;28;20085;-77
2023/04/23 11:59:31;;;;;;;5.55;1.83;;;18.10;99.90;;;;;;5010250;28;20501;-77
2023/04/23 12:01:58;;;;;;;5.68;1.75;;;18.30;99.90;;;;;;5009337;28;20077;-77
2023/04/23 12:04:29;;;;;;;6.90;2.60;;;18.20;99.90;;;;;;5009760;28;20405;-77
2023/04/23 12:06:56;;;;;;;6.68;2.13;;;18.00;99.90;;;;;;5009349;28;20057;-83
2023/04/23 12:09:25;;;;;;;9.18;1.83;;;17.90;99.90;;;;;;5009518;28;20879;-77
2023/04/23 12:11:51;;;;;;;11.52;2.65;;;17.80;99.90;;;;;;5008994;28;20455;-76
2023/04/23 12:14:19;;;;;;;8.13;2.00;;;17.90;99.90;;;;;;5009502;28;20124;-77
2023/04/23 12:16:50;;;;;;;12.43;2.40;;;18.20;99.90;;;;;;5003534;28;20057;-79
2023/04/23 12:19:19;;;;;;;10.02;1.75;;;18.30;99.90;;;;;;5017509;28;20881;-76
2023/04/23 12:21:48;;;;;;;5.78;1.67;;;18.40;99.90;;;;;;5021003;28;20519;-76
2023/04/23 12:24:14;;;;;;;8.63;1.65;;;18.60;99.90;;;;;;5019292;28;20084;-76
2023/04/23 12:26:41;;;;;;;6.15;1.55;;;18.60;99.90;;;;;;5017847;28;20038;-76
2023/04/23 12:29:09;;;;;;;9.13;1.58;;;18.80;99.90;;;;;;5013525;28;20052;-77
2023/04/23 12:31:37;;;;;;;7.43;1.33;;;18.70;99.90;;;;;;5009334;28;20057;-77